createdAt,value
2017-10-29T00:00:03.359Z,98902.85
2017-10-29T00:02:31.742Z,98898.26
2017-10-29T00:05:00.142Z,98879.81
2017-10-29T00:07:28.494Z,98881.68
2017-10-29T00:09:56.859Z,98878.34
2017-10-29T00:12:25.181Z,98863.48
2017-10-29T00:14:53.527Z,98856.64
2017-10-29T00:17:21.887Z,98851.09
2017-10-29T00:19:50.253Z,98835.36
2017-10-29T00:22:18.596Z,98846.70
2017-10-29T00:24:46.923Z,98838.44
2017-10-29T00:27:15.294Z,98824.10
2017-10-29T00:29:43.681Z,98815.20
2017-10-29T00:32:13.432Z,98787.95
2017-10-29T00:34:41.763Z,98786.27
2017-10-29T00:37:10.968Z,98788.12
2017-10-29T00:39:39.311Z,98774.40
2017-10-29T00:42:08.411Z,98757.23
2017-10-29T00:44:37.542Z,98754.27
2017-10-29T00:47:05.899Z,98738.51
2017-10-29T00:49:35.097Z,98746.70
2017-10-29T00:52:03.607Z,98739.83
2017-10-29T00:54:31.963Z,98726.20
2017-10-29T00:57:00.295Z,98706.12
2017-10-29T00:59:28.667Z,98717.38
2017-10-29T01:01:57.005Z,98700.50
2017-10-29T01:04:25.427Z,98689.88
2017-10-29T01:06:53.777Z,98684.83
2017-10-29T01:09:22.150Z,98682.59
2017-10-29T01:11:50.519Z,98681.05
2017-10-29T01:14:18.863Z,98673.22
2017-10-29T01:16:47.254Z,98647.94
2017-10-29T01:19:16.434Z,98640.52
2017-10-29T01:21:44.857Z,98615.52
2017-10-29T01:24:13.207Z,98606.86
2017-10-29T01:26:41.514Z,98585.06
2017-10-29T01:29:09.898Z,98570.75
2017-10-29T01:31:38.322Z,98578.92
2017-10-29T01:34:06.733Z,98574.99
2017-10-29T01:36:35.141Z,98551.55
2017-10-29T01:39:03.489Z,98560.63
2017-10-29T01:41:32.606Z,98527.23
2017-10-29T01:44:00.915Z,98522.04
2017-10-29T01:46:29.225Z,98500.94
2017-10-29T01:48:57.543Z,98486.71
2017-10-29T01:51:25.863Z,98482.84
2017-10-29T01:53:54.202Z,98477.55
2017-10-29T01:56:22.525Z,98482.05
2017-10-29T01:58:50.855Z,98473.20
2017-10-29T02:01:19.174Z,98472.66
2017-10-29T02:03:47.514Z,98445.25
2017-10-29T02:06:15.847Z,98434.11
2017-10-29T02:08:44.966Z,98441.97
2017-10-29T02:11:13.278Z,98440.66
2017-10-29T02:13:41.634Z,98446.20
2017-10-29T02:16:09.956Z,98452.81
2017-10-29T02:18:38.319Z,98435.42
2017-10-29T02:21:06.696Z,98428.22
2017-10-29T02:23:35.060Z,98413.52
2017-10-29T02:26:03.416Z,98436.51
2017-10-29T02:28:31.755Z,98424.53
2017-10-29T02:31:00.164Z,98404.19
2017-10-29T02:33:29.313Z,98402.42
2017-10-29T02:35:57.657Z,98394.53
2017-10-29T02:38:26.016Z,98387.08
2017-10-29T02:40:55.183Z,98393.25
2017-10-29T02:43:23.547Z,98378.61
2017-10-29T02:45:51.860Z,98373.98
2017-10-29T02:48:21.024Z,98367.44
2017-10-29T02:50:49.380Z,98359.38
2017-10-29T02:53:17.752Z,98340.32
2017-10-29T02:55:46.139Z,98338.19
2017-10-29T02:58:14.541Z,98328.35
2017-10-29T03:00:42.963Z,98336.27
2017-10-29T03:03:12.116Z,98340.03
2017-10-29T03:05:40.479Z,98357.69
2017-10-29T03:08:08.932Z,98357.83
2017-10-29T03:10:37.297Z,98344.47
2017-10-29T03:13:05.665Z,98335.24
2017-10-29T03:15:34.025Z,98371.88
2017-10-29T03:18:02.441Z,98357.61
2017-10-29T03:20:30.769Z,98363.89
2017-10-29T03:22:59.065Z,98360.13
2017-10-29T03:25:27.377Z,98360.39
2017-10-29T03:27:55.686Z,98363.30
2017-10-29T03:30:24.031Z,98383.50
2017-10-29T03:32:52.366Z,98367.36
2017-10-29T03:35:20.745Z,98356.94
2017-10-29T03:37:49.045Z,98341.22
2017-10-29T03:40:18.141Z,98369.42
2017-10-29T03:42:47.230Z,98371.14
2017-10-29T03:45:16.348Z,98374.30
2017-10-29T03:47:44.684Z,98359.61
2017-10-29T03:50:13.024Z,98363.27
2017-10-29T03:52:41.376Z,98357.41
2017-10-29T03:55:09.756Z,98384.03
2017-10-29T03:57:38.127Z,98400.05
2017-10-29T04:00:07.231Z,98415.28
2017-10-29T04:02:35.646Z,98434.69
2017-10-29T04:05:04.015Z,98416.32
2017-10-29T04:07:32.367Z,98431.46
2017-10-29T04:10:00.846Z,98432.94
2017-10-29T04:12:29.232Z,98434.36
2017-10-29T04:14:57.602Z,98418.35
2017-10-29T04:17:25.985Z,98426.09
2017-10-29T04:19:54.298Z,98428.31
2017-10-29T04:22:22.602Z,98433.86
2017-10-29T04:24:50.935Z,98470.37
2017-10-29T04:27:19.304Z,98474.43
2017-10-29T04:29:47.691Z,98469.98
2017-10-29T04:32:16.061Z,98475.31
2017-10-29T04:34:44.421Z,98462.26
2017-10-29T04:37:13.590Z,98471.62
2017-10-29T04:39:42.019Z,98485.56
2017-10-29T04:42:10.437Z,98487.06
2017-10-29T04:44:38.881Z,98487.72
2017-10-29T04:47:07.234Z,98478.73
2017-10-29T04:49:36.354Z,98507.28
2017-10-29T04:52:04.807Z,98503.26
2017-10-29T04:54:33.998Z,98518.38
2017-10-29T04:57:02.307Z,98524.24
2017-10-29T04:59:30.874Z,98515.34
2017-10-29T05:01:59.987Z,98514.41
2017-10-29T05:04:28.425Z,98497.69
2017-10-29T05:06:56.812Z,98515.05
2017-10-29T05:09:26.012Z,98497.25
2017-10-29T05:11:55.106Z,98499.97
2017-10-29T05:14:23.501Z,98492.53
2017-10-29T05:16:51.882Z,98528.76
2017-10-29T05:19:20.257Z,98519.03
2017-10-29T05:21:49.501Z,98531.22
2017-10-29T05:24:17.832Z,98528.65
2017-10-29T05:26:46.993Z,98516.32
2017-10-29T05:29:15.391Z,98535.11
2017-10-29T05:31:43.739Z,98510.23
2017-10-29T05:34:12.051Z,98499.01
2017-10-29T05:36:41.154Z,98516.61
2017-10-29T05:39:10.251Z,98539.97
2017-10-29T05:41:39.382Z,98567.34
2017-10-29T05:44:07.722Z,98584.94
2017-10-29T05:46:36.066Z,98591.31
2017-10-29T05:49:04.381Z,98601.07
2017-10-29T05:51:33.531Z,98606.45
2017-10-29T05:54:01.854Z,98596.97
2017-10-29T05:56:30.960Z,98576.19
2017-10-29T05:58:59.273Z,98585.30
2017-10-29T06:01:27.628Z,98587.62
2017-10-29T06:03:55.982Z,98592.64
2017-10-29T06:06:24.349Z,98590.48
2017-10-29T06:08:53.442Z,98603.22
2017-10-29T06:11:21.822Z,98590.48
2017-10-29T06:13:50.163Z,98590.37
2017-10-29T06:16:18.493Z,98596.63
2017-10-29T06:18:47.614Z,98596.02
2017-10-29T06:21:15.956Z,98595.88
2017-10-29T06:23:44.291Z,98600.39
2017-10-29T06:26:12.642Z,98595.89
2017-10-29T06:28:40.965Z,98589.66
2017-10-29T06:31:09.304Z,98596.33
2017-10-29T06:33:37.676Z,98626.23
2017-10-29T06:36:06.029Z,98631.44
2017-10-29T06:38:35.164Z,98625.55
2017-10-29T06:41:03.530Z,98630.46
2017-10-29T06:43:31.915Z,98630.86
2017-10-29T06:46:00.263Z,98602.66
2017-10-29T06:48:30.004Z,98620.01
2017-10-29T06:50:58.375Z,98630.56
2017-10-29T06:53:26.755Z,98654.42
2017-10-29T06:55:55.102Z,98648.88
2017-10-29T06:58:24.174Z,98658.93
2017-10-29T07:00:52.554Z,98681.02
2017-10-29T07:03:20.867Z,98675.28
2017-10-29T07:05:49.200Z,98696.38
2017-10-29T07:08:17.555Z,98716.53
2017-10-29T07:10:45.884Z,98693.16
2017-10-29T07:13:14.243Z,98704.27
2017-10-29T07:15:42.559Z,98704.56
2017-10-29T07:18:11.681Z,98734.12
2017-10-29T07:20:40.117Z,98739.73
2017-10-29T07:23:08.454Z,98761.64
2017-10-29T07:25:36.822Z,98762.07
2017-10-29T07:28:05.160Z,98754.77
2017-10-29T07:30:34.281Z,98789.28
2017-10-29T07:33:02.587Z,98797.14
2017-10-29T07:35:30.918Z,98800.66
2017-10-29T07:38:00.033Z,98817.47
2017-10-29T07:40:28.393Z,98857.30
2017-10-29T07:42:57.478Z,98850.00
2017-10-29T07:45:26.585Z,98865.97
2017-10-29T07:47:55.668Z,98864.34
2017-10-29T07:50:24.770Z,98861.23
2017-10-29T07:52:53.086Z,98871.13
2017-10-29T07:55:21.450Z,98885.48
2017-10-29T07:57:49.829Z,98894.42
2017-10-29T08:00:18.178Z,98907.83
2017-10-29T08:02:46.499Z,98919.86
2017-10-29T08:05:14.829Z,98921.27
2017-10-29T08:07:43.161Z,98929.96
2017-10-29T08:10:11.504Z,98955.29
2017-10-29T08:12:39.840Z,98938.88
2017-10-29T08:15:08.165Z,98937.39
2017-10-29T08:17:36.545Z,98934.41
2017-10-29T08:20:04.924Z,98958.40
2017-10-29T08:22:33.260Z,98974.56
2017-10-29T08:25:01.566Z,98987.84
2017-10-29T08:27:30.646Z,98991.91
2017-10-29T08:29:58.975Z,99019.29
2017-10-29T08:32:27.276Z,98995.67
2017-10-29T08:34:55.623Z,99028.86
2017-10-29T08:37:23.982Z,99051.47
2017-10-29T08:39:53.337Z,99027.86
2017-10-29T08:42:21.663Z,99064.08
2017-10-29T08:44:50.143Z,99062.09
2017-10-29T08:47:18.506Z,99071.61
2017-10-29T08:49:47.603Z,99081.80
2017-10-29T08:52:16.722Z,99085.81
2017-10-29T08:54:45.085Z,99097.78
2017-10-29T08:57:14.227Z,99116.16
2017-10-29T08:59:42.663Z,99118.48
2017-10-29T09:02:11.820Z,99132.17
2017-10-29T09:04:40.151Z,99131.24
2017-10-29T09:07:08.614Z,99139.20
2017-10-29T09:09:36.955Z,99146.11
2017-10-29T09:12:05.295Z,99156.09
2017-10-29T09:14:33.631Z,99161.27
2017-10-29T09:17:01.950Z,99179.58
2017-10-29T09:19:30.288Z,99179.89
2017-10-29T09:21:58.633Z,99185.56
2017-10-29T09:24:27.020Z,99184.80
2017-10-29T09:26:55.351Z,99205.47
2017-10-29T09:29:23.684Z,99218.84
2017-10-29T09:31:52.042Z,99231.73
2017-10-29T09:34:20.427Z,99218.84
2017-10-29T09:36:48.788Z,99222.92
2017-10-29T09:39:17.115Z,99251.02
2017-10-29T09:41:46.201Z,99272.08
2017-10-29T09:44:14.523Z,99271.39
2017-10-29T09:46:42.842Z,99271.39
2017-10-29T09:49:11.176Z,99268.66
2017-10-29T09:51:39.487Z,99287.66
2017-10-29T09:54:07.818Z,99276.69
2017-10-29T09:56:36.951Z,99286.73
2017-10-29T09:59:05.308Z,99305.36
2017-10-29T10:01:33.720Z,99322.91
2017-10-29T10:04:02.034Z,99318.14
2017-10-29T10:06:31.154Z,99335.81
2017-10-29T10:08:59.489Z,99333.78
2017-10-29T10:11:28.084Z,99348.32
2017-10-29T10:13:56.432Z,99347.91
2017-10-29T10:16:24.805Z,99352.55
2017-10-29T10:18:53.148Z,99347.09
2017-10-29T10:21:21.521Z,99349.95
2017-10-29T10:23:49.840Z,99376.07
2017-10-29T10:26:18.220Z,99373.36
2017-10-29T10:28:46.527Z,99379.07
2017-10-29T10:31:14.976Z,99406.14
2017-10-29T10:33:43.349Z,99390.48
2017-10-29T10:36:11.706Z,99406.38
2017-10-29T10:38:40.057Z,99399.98
2017-10-29T10:41:09.169Z,99409.10
2017-10-29T10:43:37.482Z,99436.97
2017-10-29T10:46:05.812Z,99425.84
2017-10-29T10:48:34.154Z,99424.48
2017-10-29T10:51:02.516Z,99443.00
2017-10-29T10:53:30.841Z,99447.45
2017-10-29T10:55:59.987Z,99436.84
2017-10-29T10:58:28.655Z,99447.05
2017-10-29T11:00:57.012Z,99455.08
2017-10-29T11:03:25.368Z,99462.30
2017-10-29T11:05:53.809Z,99477.30
2017-10-29T11:08:22.283Z,99471.02
2017-10-29T11:10:50.651Z,99447.20
2017-10-29T11:13:18.986Z,99477.64
2017-10-29T11:15:47.370Z,99475.63
2017-10-29T11:18:16.462Z,99506.67
2017-10-29T11:20:44.787Z,99484.76
2017-10-29T11:23:13.144Z,99489.80
2017-10-29T11:25:41.505Z,99493.73
2017-10-29T11:28:10.695Z,99501.77
2017-10-29T11:30:39.806Z,99502.55
2017-10-29T11:33:08.157Z,99511.16
2017-10-29T11:35:36.548Z,99522.84
2017-10-29T11:38:04.948Z,99522.05
2017-10-29T11:40:33.331Z,99525.03
2017-10-29T11:43:01.660Z,99530.45
2017-10-29T11:45:30.045Z,99536.33
2017-10-29T11:47:58.479Z,99557.02
2017-10-29T11:50:26.839Z,99544.51
2017-10-29T11:52:55.154Z,99551.86
2017-10-29T11:55:23.496Z,99567.78
2017-10-29T11:57:51.844Z,99572.55
2017-10-29T12:00:20.235Z,99571.45
2017-10-29T12:02:48.594Z,99581.64
2017-10-29T12:05:17.019Z,99594.19
2017-10-29T12:07:45.407Z,99586.03
2017-10-29T12:10:13.776Z,99595.84
2017-10-29T12:12:42.174Z,99621.25
2017-10-29T12:15:10.513Z,99628.52
2017-10-29T12:17:39.750Z,99623.18
2017-10-29T12:20:08.217Z,99626.31
2017-10-29T12:22:36.592Z,99650.16
2017-10-29T12:25:04.950Z,99642.77
2017-10-29T12:27:34.097Z,99661.72
2017-10-29T12:30:02.447Z,99659.70
2017-10-29T12:32:30.934Z,99654.48
2017-10-29T12:34:59.298Z,99654.49
2017-10-29T12:37:27.693Z,99661.02
2017-10-29T12:39:56.146Z,99669.92
2017-10-29T12:42:25.239Z,99683.39
2017-10-29T12:44:54.357Z,99674.63
2017-10-29T12:47:22.752Z,99690.17
2017-10-29T12:49:51.103Z,99702.48
2017-10-29T12:52:20.298Z,99700.86
2017-10-29T12:54:49.497Z,99708.62
2017-10-29T12:57:17.859Z,99710.37
2017-10-29T12:59:46.252Z,99714.33
2017-10-29T13:02:15.337Z,99709.67
2017-10-29T13:04:44.485Z,99727.97
2017-10-29T13:07:12.864Z,99709.84
2017-10-29T13:09:41.223Z,99750.96
2017-10-29T13:12:09.598Z,99749.89
2017-10-29T13:14:38.159Z,99753.34
2017-10-29T13:17:07.357Z,99756.67
2017-10-29T13:19:36.554Z,99765.59
2017-10-29T13:22:05.770Z,99767.45
2017-10-29T13:24:34.124Z,99770.23
2017-10-29T13:27:03.240Z,99783.50
2017-10-29T13:29:31.620Z,99777.76
2017-10-29T13:32:00.551Z,99790.53
2017-10-29T13:34:28.928Z,99793.11
2017-10-29T13:36:57.311Z,99798.78
2017-10-29T13:39:25.667Z,99815.84
2017-10-29T13:41:53.998Z,99812.70
2017-10-29T13:44:23.145Z,99834.13
2017-10-29T13:46:51.491Z,99828.56
2017-10-29T13:49:20.602Z,99833.98
2017-10-29T13:51:48.895Z,99859.77
2017-10-29T13:54:17.199Z,99857.77
2017-10-29T13:56:45.499Z,99888.45
2017-10-29T13:59:14.592Z,99903.47
2017-10-29T14:01:42.899Z,99910.05
2017-10-29T14:04:11.206Z,99906.47
2017-10-29T14:06:39.515Z,99924.03
2017-10-29T14:09:07.814Z,99936.07
2017-10-29T14:11:36.875Z,99932.69
2017-10-29T14:14:05.182Z,99942.41
2017-10-29T14:16:34.245Z,99948.11
2017-10-29T14:19:02.552Z,99954.78
2017-10-29T14:21:31.615Z,99962.89
2017-10-29T14:23:59.956Z,99975.08
2017-10-29T14:26:28.258Z,99978.99
2017-10-29T14:28:56.578Z,99992.28
2017-10-29T14:31:25.643Z,100001.62
2017-10-29T14:33:53.946Z,100004.95
2017-10-29T14:36:23.006Z,100005.87
2017-10-29T14:38:51.320Z,100015.19
2017-10-29T14:41:20.391Z,100010.55
2017-10-29T14:43:48.708Z,100008.09
2017-10-29T14:46:17.018Z,100014.33
2017-10-29T14:48:45.331Z,100017.44
2017-10-29T14:51:14.414Z,100019.15
2017-10-29T14:53:42.724Z,100026.86
2017-10-29T14:56:11.785Z,100036.59
2017-10-29T14:58:40.132Z,100028.88
2017-10-29T15:01:08.421Z,100040.46
2017-10-29T15:03:36.722Z,100044.37
2017-10-29T15:06:05.061Z,100053.71
2017-10-29T15:08:33.371Z,100057.08
2017-10-29T15:11:01.692Z,100065.77
2017-10-29T15:13:30.751Z,100067.19
2017-10-29T15:15:59.080Z,100069.83
2017-10-29T15:18:27.395Z,100067.72
2017-10-29T15:20:55.711Z,100079.56
2017-10-29T15:23:24.775Z,100082.42
2017-10-29T15:25:53.110Z,100095.80
2017-10-29T15:28:21.406Z,100094.20
2017-10-29T15:30:50.537Z,100097.91
2017-10-29T15:33:18.862Z,100101.28
2017-10-29T15:35:47.182Z,100097.74
2017-10-29T15:38:15.489Z,100101.80
2017-10-29T15:40:44.624Z,100114.13
2017-10-29T15:43:12.917Z,100111.33
2017-10-29T15:45:41.239Z,100113.23
2017-10-29T15:48:10.297Z,100114.92
2017-10-29T15:50:38.609Z,100115.55
2017-10-29T15:53:07.686Z,100128.19
2017-10-29T15:55:36.053Z,100126.00
2017-10-29T15:58:04.360Z,100125.93
2017-10-29T16:00:33.430Z,100131.28
2017-10-29T16:03:01.770Z,100139.04
2017-10-29T16:05:30.086Z,100147.90
2017-10-29T16:07:58.401Z,100152.00
2017-10-29T16:10:27.466Z,100150.92
2017-10-29T16:12:55.780Z,100158.69
2017-10-29T16:15:24.086Z,100163.52
2017-10-29T16:17:52.410Z,100164.55
2017-10-29T16:20:21.474Z,100171.44
2017-10-29T16:22:49.798Z,100170.58
2017-10-29T16:25:18.863Z,100169.94
2017-10-29T16:27:47.174Z,100179.84
2017-10-29T16:30:16.230Z,100184.03
2017-10-29T16:32:44.550Z,100180.67
2017-10-29T16:35:12.859Z,100188.98
2017-10-29T16:37:41.181Z,100185.66
2017-10-29T16:40:09.490Z,100190.50
2017-10-29T16:42:37.802Z,100197.70
2017-10-29T16:45:06.118Z,100202.89
2017-10-29T16:47:35.206Z,100198.88
2017-10-29T16:50:04.294Z,100202.27
2017-10-29T16:52:32.626Z,100196.37
2017-10-29T16:55:00.923Z,100209.72
2017-10-29T16:57:29.230Z,100204.52
2017-10-29T16:59:57.527Z,100211.08
2017-10-29T17:02:26.611Z,100212.81
2017-10-29T17:04:54.911Z,100210.27
2017-10-29T17:07:23.222Z,100219.42
2017-10-29T17:09:51.526Z,100226.84
2017-10-29T17:12:19.830Z,100230.35
2017-10-29T17:14:48.924Z,100238.62
2017-10-29T17:17:17.994Z,100252.17
2017-10-29T17:19:47.070Z,100262.89
2017-10-29T17:22:15.384Z,100269.09
2017-10-29T17:24:44.475Z,100269.56
2017-10-29T17:27:12.810Z,100272.73
2017-10-29T17:29:41.113Z,100276.31
2017-10-29T17:32:09.451Z,100274.61
2017-10-29T17:34:37.750Z,100276.66
2017-10-29T17:37:06.067Z,100276.05
2017-10-29T17:39:35.157Z,100275.02
2017-10-29T17:44:38.748Z,100276.69
2017-10-29T17:47:07.057Z,100282.83
2017-10-29T17:49:36.151Z,100291.93
2017-10-29T17:52:05.222Z,100290.02
2017-10-29T17:54:33.565Z,100291.33
2017-10-29T17:57:01.881Z,100291.25
2017-10-29T17:59:30.533Z,100304.15
2017-10-29T18:01:58.834Z,100303.47
2017-10-29T18:04:27.158Z,100311.14
2017-10-29T18:06:55.464Z,100315.31
2017-10-29T18:09:23.782Z,100314.19
2017-10-29T18:11:52.087Z,100314.30
2017-10-29T18:14:21.162Z,100325.28
2017-10-29T18:16:49.456Z,100324.87
2017-10-29T18:19:18.543Z,100334.50
2017-10-29T18:21:47.615Z,100344.66
2017-10-29T18:24:15.930Z,100340.06
2017-10-29T18:26:45.002Z,100343.80
2017-10-29T18:29:13.327Z,100345.09
2017-10-29T18:31:41.627Z,100350.37
2017-10-29T18:34:09.950Z,100349.92
2017-10-29T18:36:39.026Z,100358.03
2017-10-29T18:39:07.347Z,100357.38
2017-10-29T18:41:35.650Z,100357.57
2017-10-29T18:44:03.991Z,100361.39
2017-10-29T18:46:32.366Z,100365.41
2017-10-29T18:49:00.682Z,100373.70
2017-10-29T18:51:28.986Z,100384.03
2017-10-29T18:53:57.307Z,100380.80
2017-10-29T18:56:25.601Z,100385.06
2017-10-29T18:58:53.923Z,100393.14
2017-10-29T19:01:22.228Z,100392.17
2017-10-29T19:03:50.554Z,100398.12
2017-10-29T19:06:18.869Z,100408.53
2017-10-29T19:08:47.975Z,100401.89
2017-10-29T19:11:17.071Z,100406.56
2017-10-29T19:13:45.403Z,100409.67
2017-10-29T19:16:13.713Z,100415.66
2017-10-29T19:18:42.020Z,100419.84
2017-10-29T19:21:10.334Z,100414.93
2017-10-29T19:23:38.725Z,100416.31
2017-10-29T19:26:07.058Z,100417.64
2017-10-29T19:28:35.394Z,100417.75
2017-10-29T19:31:03.706Z,100421.34
2017-10-29T19:33:32.026Z,100418.50
2017-10-29T19:36:00.380Z,100418.53
2017-10-29T19:38:28.712Z,100412.47
2017-10-29T19:40:57.852Z,100414.15
2017-10-29T19:43:26.169Z,100429.28
2017-10-29T19:45:54.487Z,100433.48
2017-10-29T19:48:22.803Z,100445.88
2017-10-29T19:50:51.136Z,100443.93
2017-10-29T19:53:19.478Z,100443.02
2017-10-29T19:55:52.690Z,100450.30
2017-10-29T19:58:21.771Z,100453.63
2017-10-29T20:00:50.109Z,100453.21
2017-10-29T20:03:18.431Z,100457.61
2017-10-29T20:05:46.760Z,100461.47
2017-10-29T20:08:15.074Z,100460.84
2017-10-29T20:10:43.418Z,100462.27
2017-10-29T20:13:11.741Z,100461.95
2017-10-29T20:15:40.863Z,100470.30
2017-10-29T20:18:09.194Z,100471.89
2017-10-29T20:20:37.518Z,100466.77
2017-10-29T20:23:05.906Z,100474.87
2017-10-29T20:25:34.240Z,100469.91
2017-10-29T20:28:02.564Z,100471.39
2017-10-29T20:30:30.929Z,100472.88
2017-10-29T20:33:00.046Z,100477.95
2017-10-29T20:35:28.431Z,100470.30
2017-10-29T20:37:56.758Z,100473.88
2017-10-29T20:40:25.068Z,100484.06
2017-10-29T20:42:53.456Z,100481.84
2017-10-29T20:45:21.786Z,100478.94
2017-10-29T20:47:50.126Z,100487.99
2017-10-29T20:50:18.445Z,100492.26
2017-10-29T20:52:46.783Z,100491.84
2017-10-29T20:55:15.133Z,100483.94
2017-10-29T20:57:43.491Z,100492.59
2017-10-29T21:00:11.850Z,100493.78
2017-10-29T21:02:40.233Z,100498.03
2017-10-29T21:05:08.588Z,100498.33
2017-10-29T21:07:36.923Z,100500.91
2017-10-29T21:10:05.251Z,100496.67
2017-10-29T21:12:33.599Z,100504.17
2017-10-29T21:15:01.986Z,100511.64
2017-10-29T21:17:30.346Z,100513.39
2017-10-29T21:19:58.718Z,100511.80
2017-10-29T21:22:27.067Z,100512.22
2017-10-29T21:24:56.200Z,100515.16
2017-10-29T21:27:24.580Z,100516.78
2017-10-29T21:29:52.898Z,100518.86
2017-10-29T21:32:21.210Z,100525.82
2017-10-29T21:34:50.287Z,100516.80
2017-10-29T21:37:18.603Z,100530.41
2017-10-29T21:39:46.927Z,100526.55
2017-10-29T21:42:15.291Z,100527.19
2017-10-29T21:44:44.298Z,100530.74
2017-10-29T21:47:12.619Z,100528.16
2017-10-29T21:49:40.956Z,100527.12
2017-10-29T21:52:09.304Z,100525.14
2017-10-29T21:54:37.618Z,100529.09
2017-10-29T21:57:05.935Z,100532.09
2017-10-29T21:59:34.312Z,100529.94
2017-10-29T22:02:02.666Z,100533.43
2017-10-29T22:04:31.762Z,100532.23
2017-10-29T22:07:00.851Z,100535.77
2017-10-29T22:09:29.179Z,100539.06
2017-10-29T22:11:57.490Z,100542.16
2017-10-29T22:14:25.822Z,100545.70
2017-10-29T22:16:54.142Z,100555.58
2017-10-29T22:19:22.463Z,100565.75
2017-10-29T22:21:50.782Z,100558.40
2017-10-29T22:24:19.104Z,100546.19
2017-10-29T22:26:48.181Z,100563.17
2017-10-29T22:29:16.478Z,100567.83
2017-10-29T22:31:45.558Z,100567.36
2017-10-29T22:34:13.858Z,100559.25
2017-10-29T22:36:42.970Z,100565.16
2017-10-29T22:39:11.282Z,100570.04
2017-10-29T22:41:39.642Z,100569.60
2017-10-29T22:44:07.961Z,100568.13
2017-10-29T22:46:36.283Z,100573.92
2017-10-29T22:49:04.597Z,100572.69
2017-10-29T22:51:32.913Z,100572.44
2017-10-29T22:54:01.239Z,100563.09
2017-10-29T22:56:29.541Z,100572.20
2017-10-29T22:58:57.850Z,100570.68
2017-10-29T23:01:26.922Z,100575.84
2017-10-29T23:03:55.242Z,100575.84
2017-10-29T23:06:41.174Z,100578.24
2017-10-29T23:09:22.034Z,100571.38
2017-10-29T23:11:50.341Z,100574.91
2017-10-29T23:14:18.663Z,100585.59
2017-10-29T23:16:46.967Z,100596.66
2017-10-29T23:19:15.286Z,100594.14
2017-10-29T23:21:44.365Z,100589.28
2017-10-29T23:24:12.686Z,100598.62
2017-10-29T23:26:40.991Z,100604.16
2017-10-29T23:29:09.306Z,100606.04
2017-10-29T23:31:38.430Z,100605.94
2017-10-29T23:34:06.742Z,100597.30
2017-10-29T23:36:35.053Z,100608.23
2017-10-29T23:39:04.134Z,100607.83
2017-10-29T23:41:32.434Z,100598.79
2017-10-29T23:44:01.530Z,100600.15
2017-10-29T23:46:30.603Z,100610.72
2017-10-29T23:48:58.926Z,100612.19
2017-10-29T23:51:27.223Z,100615.50
2017-10-29T23:53:55.542Z,100617.91
2017-10-29T23:56:23.847Z,100623.12
2017-10-29T23:58:52.163Z,100621.84
